Captain Nicholas Ml — C6XF3 — position and weather

sailwx.info

Track history (hours):
 
Tides and Currents Weather Stations Pressure Air Temp Water Temp Dewpoint Dewpoint Depression Visibility Wind Speed Wind Dir Waves Ship Positions

Captain Nicholas Ml

Last reported at 2017-Sep-18 14:32 UTC. Time now 2017-Sep-19 11:47 UTC.
Position N 70°57' E 021°44'.

Length 225 m; draft 9.2 m.

Type: Tanker. MMSI: 311007100.

Date/timePositionNaut miles runAvg speedWind from/ knotsBaromVisibWave heightAir tempDewpointWater temp
2017-Sep-18 14:32N 70°57' E 021°44'116.0
2017-Sep-18 14:30N 70°58' E 021°46'815.8
2017-Sep-18 14:00N 71°00' E 022°08'815.2
2017-Sep-18 13:29N 71°03' E 022°31'714.7
2017-Sep-18 13:00N 71°05' E 022°52'714.4
2017-Sep-18 12:30N 71°07' E 023°13'611.1
2017-Sep-18 12:00N 71°09' E 023°29'5 9.2
2017-Sep-18 11:29N 71°04' E 023°32'510.6
2017-Sep-18 11:00N 70°59' E 023°34'613.0
2017-Sep-18 10:30N 70°53' E 023°33'713.7
2017-Sep-18 10:00N 70°45' E 023°34'510.4
2017-Sep-18 09:30N 70°40' E 023°35'1 1.5
2017-Sep-18 09:00N 70°41' E 023°36'0 0.0
2017-Sep-18 08:28N 70°41' E 023°36'0 0.0
2017-Sep-18 07:58N 70°41' E 023°36'0 0.0
2017-Sep-18 07:30N 70°41' E 023°36'0 0.0
2017-Sep-17 06:19N 70°41' E 023°36'0 0.0
2017-Sep-17 06:00N 70°41' E 023°36'0 0.0
2017-Sep-17 05:30N 70°41' E 023°36'0 0.1
2017-Sep-17 05:00N 70°41' E 023°36'3 5.6
2017-Sep-17 04:29N 70°41' E 023°27'1 1.5
2017-Sep-17 03:59N 70°41' E 023°25'0 0.0
2017-Sep-17 03:29N 70°41' E 023°25'0 0.2
2017-Sep-17 02:59N 70°41' E 023°25'0 0.0
2017-Sep-17 02:30N 70°41' E 023°25'0 0.1
2017-Sep-17 02:00N 70°41' E 023°25'0 0.2
2017-Sep-17 01:30N 70°41' E 023°25'0 0.1
2017-Sep-17 00:58N 70°41' E 023°25'0 0.0
2017-Sep-17 00:28N 70°41' E 023°25'0 0.0
2017-Sep-16 23:58N 70°41' E 023°25'0 0.0
2017-Sep-16 23:29N 70°41' E 023°25'0 0.1
2017-Sep-16 22:59N 70°41' E 023°25'0 0.1
2017-Sep-16 22:29N 70°41' E 023°25'0 0.1
2017-Sep-16 22:00N 70°41' E 023°25'0 0.0
2017-Sep-16 21:30N 70°41' E 023°25'0 0.1
2017-Sep-16 21:00N 70°41' E 023°25'0 0.1
2017-Sep-16 20:28N 70°41' E 023°25'0 0.1
2017-Sep-16 19:58N 70°41' E 023°25'0 0.1
2017-Sep-16 19:28N 70°41' E 023°25'0 0.0
2017-Sep-16 18:59N 70°41' E 023°25'0 0.1
2017-Sep-16 18:29N 70°41' E 023°25'0 0.2
2017-Sep-16 17:59N 70°41' E 023°24'0 0.1
2017-Sep-16 17:30N 70°41' E 023°24'0 0.1
2017-Sep-16 17:00N 70°41' E 023°24'0 0.2
2017-Sep-16 16:30N 70°41' E 023°25'0 0.2
2017-Sep-16 15:58N 70°41' E 023°25'0 0.1
2017-Sep-16 15:28N 70°41' E 023°25'0 0.1
2017-Sep-16 14:58N 70°41' E 023°25'0 0.0
2017-Sep-16 14:29N 70°41' E 023°25'0 0.2
2017-Sep-16 13:59N 70°41' E 023°25'0 0.2
2017-Sep-16 13:29N 70°41' E 023°24'0 0.3
2017-Sep-16 13:00N 70°41' E 023°25'0 0.0
2017-Sep-16 12:30N 70°41' E 023°25'0 0.1
2017-Sep-16 12:00N 70°41' E 023°25'0 0.6
2017-Sep-16 11:30N 70°41' E 023°24'4 8.8
2017-Sep-16 11:00N 70°45' E 023°30'611.1
2017-Sep-16 10:29N 70°50' E 023°33'713.8
2017-Sep-16 10:00N 70°57' E 023°34'713.6
2017-Sep-16 09:31N 71°04' E 023°34'3 5.1
2017-Sep-16 09:00N 71°05' E 023°27'5 9.7
2017-Sep-16 08:30N 71°06' E 023°13'611.6
2017-Sep-16 08:00N 71°07' E 022°55'1 1.9
2017-Sep-16 07:30N 71°07' E 022°58'2 3.8
2017-Sep-16 07:00N 71°07' E 023°04'3 6.8
2017-Sep-16 06:31N 71°06' E 023°13'612.3
2017-Sep-16 06:00N 71°03' E 022°56'714.7
2017-Sep-16 05:30N 71°01' E 022°34'815.5
2017-Sep-16 05:00N 70°59' E 022°11'814.9
2017-Sep-16 04:30N 70°57' E 021°49'  
2017-Sep-12 19:10N 55°54' W 007°05'517.1
2017-Sep-12 18:53N 55°50' W 006°60'717.5
2017-Sep-12 18:30N 55°45' W 006°53'918.2
2017-Sep-12 18:00N 55°37' W 006°44'917.3
2017-Sep-12 17:30N 55°30' W 006°35'816.6
2017-Sep-12 17:00N 55°28' W 006°21'816.4
2017-Sep-12 16:30N 55°26' W 006°07'815.6
2017-Sep-12 16:00N 55°21' W 005°57'816.5
2017-Sep-12 15:31N 55°14' W 005°48'1115.9
2017-Sep-12 14:50N 55°05' W 005°37'615.4
2017-Sep-12 14:27N 55°01' W 005°31'715.1
2017-Sep-12 14:00N 54°55' W 005°25'714.6
2017-Sep-12 13:31N 54°48' W 005°21'714.3
2017-Sep-12 13:01N 54°42' W 005°16'714.5
2017-Sep-12 12:31N 54°35' W 005°11'715.0
2017-Sep-12 12:01N 54°28' W 005°09'815.2
2017-Sep-12 11:31N 54°20' W 005°09'815.5
2017-Sep-12 11:01N 54°12' W 005°09'1015.6
2017-Sep-12 10:22N 54°02' W 005°09'9413.7
2017-Sep-12 03:32N 52°29' W 005°28'114.8
2017-Sep-12 03:29N 52°28' W 005°28'714.1
2017-Sep-12 03:00N 52°22' W 005°31'714.6
2017-Sep-12 02:30N 52°15' W 005°34'815.1
2017-Sep-12 02:00N 52°08' W 005°38'3715.8
2017-Sep-11 23:38N 51°32' W 005°55'  
2017-Sep-09 10:07N 39°26' W 009°58'214.7
2017-Sep-09 10:00N 39°24' W 009°58'715.3
2017-Sep-09 09:30N 39°16' W 009°57'714.5
2017-Sep-09 09:00N 39°09' W 009°57'714.7
2017-Sep-09 08:30N 39°02' W 009°57'714.6
2017-Sep-09 08:01N 38°55' W 009°58'714.7
2017-Sep-09 07:30N 38°47' W 009°57'714.7
2017-Sep-09 07:00N 38°40' W 009°56'815.2
2017-Sep-09 06:31N 38°33' W 009°54'815.2
2017-Sep-09 06:01N 38°25' W 009°52'815.0
2017-Sep-09 05:30N 38°18' W 009°50'815.3
2017-Sep-09 05:00N 38°10' W 009°47'815.2
2017-Sep-09 04:30N 38°03' W 009°45'815.3
2017-Sep-09 04:00N 37°56' W 009°43'714.9
2017-Sep-09 03:30N 37°48' W 009°40'815.1
2017-Sep-09 03:00N 37°41' W 009°38'714.8
2017-Sep-09 02:30N 37°34' W 009°37'714.5
2017-Sep-09 02:00N 37°27' W 009°35'714.5
2017-Sep-09 01:30N 37°20' W 009°32'714.3
2017-Sep-09 01:00N 37°13' W 009°30'1114.2
2017-Sep-09 00:14N 37°02' W 009°27'313.7
2017-Sep-09 00:00N 36°59' W 009°26'713.6
2017-Sep-08 23:30N 36°52' W 009°25'713.6
2017-Sep-08 23:00N 36°47' W 009°19'713.9
2017-Sep-08 22:30N 36°42' W 009°13'713.5
2017-Sep-08 22:00N 36°38' W 009°06'714.2
2017-Sep-08 21:30N 36°36' W 008°58'714.9
2017-Sep-08 21:00N 36°35' W 008°49'714.8
2017-Sep-08 20:30N 36°34' W 008°39'714.8
2017-Sep-08 20:00N 36°32' W 008°30'714.9
2017-Sep-08 19:30N 36°30' W 008°22'815.1
2017-Sep-08 19:01N 36°28' W 008°13'815.1
2017-Sep-08 18:31N 36°26' W 008°04'815.3
2017-Sep-08 18:00N 36°25' W 007°54'815.8
2017-Sep-08 17:30N 36°23' W 007°45'815.8
2017-Sep-08 17:00N 36°19' W 007°36'815.7
2017-Sep-08 16:30N 36°17' W 007°27'815.7
2017-Sep-08 16:00N 36°14' W 007°17'815.9
2017-Sep-08 15:30N 36°11' W 007°08'815.8
2017-Sep-08 15:01N 36°09' W 006°59'  
Track history (hours):
 
Tides and Currents Weather Stations Pressure Air Temp Water Temp Dewpoint Dewpoint Depression Visibility Wind Speed Wind Dir Waves Ship Positions

Captain Nicholas Ml

Last reported at 2017-Sep-18 14:32 UTC. Time now 2017-Sep-19 11:47 UTC.
Position N 70°57' E 021°44'.

Length 225 m; draft 9.2 m.

Type: Tanker. MMSI: 311007100.

Date/timePositionNaut miles runAvg speedWind from/ knotsBaromVisibWave heightAir tempDewpointWater temp
2017-Sep-18 14:32N 70°57' E 021°44'116.0
2017-Sep-18 14:30N 70°58' E 021°46'815.8
2017-Sep-18 14:00N 71°00' E 022°08'815.2
2017-Sep-18 13:29N 71°03' E 022°31'714.7
2017-Sep-18 13:00N 71°05' E 022°52'714.4
2017-Sep-18 12:30N 71°07' E 023°13'611.1
2017-Sep-18 12:00N 71°09' E 023°29'5 9.2
2017-Sep-18 11:29N 71°04' E 023°32'510.6
2017-Sep-18 11:00N 70°59' E 023°34'613.0
2017-Sep-18 10:30N 70°53' E 023°33'713.7
2017-Sep-18 10:00N 70°45' E 023°34'510.4
2017-Sep-18 09:30N 70°40' E 023°35'1 1.5
2017-Sep-18 09:00N 70°41' E 023°36'0 0.0
2017-Sep-18 08:28N 70°41' E 023°36'0 0.0
2017-Sep-18 07:58N 70°41' E 023°36'0 0.0
2017-Sep-18 07:30N 70°41' E 023°36'0 0.0
2017-Sep-17 06:19N 70°41' E 023°36'0 0.0
2017-Sep-17 06:00N 70°41' E 023°36'0 0.0
2017-Sep-17 05:30N 70°41' E 023°36'0 0.1
2017-Sep-17 05:00N 70°41' E 023°36'3 5.6
2017-Sep-17 04:29N 70°41' E 023°27'1 1.5
2017-Sep-17 03:59N 70°41' E 023°25'0 0.0
2017-Sep-17 03:29N 70°41' E 023°25'0 0.2
2017-Sep-17 02:59N 70°41' E 023°25'0 0.0
2017-Sep-17 02:30N 70°41' E 023°25'0 0.1
2017-Sep-17 02:00N 70°41' E 023°25'0 0.2
2017-Sep-17 01:30N 70°41' E 023°25'0 0.1
2017-Sep-17 00:58N 70°41' E 023°25'0 0.0
2017-Sep-17 00:28N 70°41' E 023°25'0 0.0
2017-Sep-16 23:58N 70°41' E 023°25'0 0.0
2017-Sep-16 23:29N 70°41' E 023°25'0 0.1
2017-Sep-16 22:59N 70°41' E 023°25'0 0.1
2017-Sep-16 22:29N 70°41' E 023°25'0 0.1
2017-Sep-16 22:00N 70°41' E 023°25'0 0.0
2017-Sep-16 21:30N 70°41' E 023°25'0 0.1
2017-Sep-16 21:00N 70°41' E 023°25'0 0.1
2017-Sep-16 20:28N 70°41' E 023°25'0 0.1
2017-Sep-16 19:58N 70°41' E 023°25'0 0.1
2017-Sep-16 19:28N 70°41' E 023°25'0 0.0
2017-Sep-16 18:59N 70°41' E 023°25'0 0.1
2017-Sep-16 18:29N 70°41' E 023°25'0 0.2
2017-Sep-16 17:59N 70°41' E 023°24'0 0.1
2017-Sep-16 17:30N 70°41' E 023°24'0 0.1
2017-Sep-16 17:00N 70°41' E 023°24'0 0.2
2017-Sep-16 16:30N 70°41' E 023°25'0 0.2
2017-Sep-16 15:58N 70°41' E 023°25'0 0.1
2017-Sep-16 15:28N 70°41' E 023°25'0 0.1
2017-Sep-16 14:58N 70°41' E 023°25'0 0.0
2017-Sep-16 14:29N 70°41' E 023°25'0 0.2
2017-Sep-16 13:59N 70°41' E 023°25'0 0.2
2017-Sep-16 13:29N 70°41' E 023°24'0 0.3
2017-Sep-16 13:00N 70°41' E 023°25'0 0.0
2017-Sep-16 12:30N 70°41' E 023°25'0 0.1
2017-Sep-16 12:00N 70°41' E 023°25'0 0.6
2017-Sep-16 11:30N 70°41' E 023°24'4 8.8
2017-Sep-16 11:00N 70°45' E 023°30'611.1
2017-Sep-16 10:29N 70°50' E 023°33'713.8
2017-Sep-16 10:00N 70°57' E 023°34'713.6
2017-Sep-16 09:31N 71°04' E 023°34'3 5.1
2017-Sep-16 09:00N 71°05' E 023°27'5 9.7
2017-Sep-16 08:30N 71°06' E 023°13'611.6
2017-Sep-16 08:00N 71°07' E 022°55'1 1.9
2017-Sep-16 07:30N 71°07' E 022°58'2 3.8
2017-Sep-16 07:00N 71°07' E 023°04'3 6.8
2017-Sep-16 06:31N 71°06' E 023°13'612.3
2017-Sep-16 06:00N 71°03' E 022°56'714.7
2017-Sep-16 05:30N 71°01' E 022°34'815.5
2017-Sep-16 05:00N 70°59' E 022°11'814.9
2017-Sep-16 04:30N 70°57' E 021°49'  
2017-Sep-12 19:10N 55°54' W 007°05'517.1
2017-Sep-12 18:53N 55°50' W 006°60'717.5
2017-Sep-12 18:30N 55°45' W 006°53'918.2
2017-Sep-12 18:00N 55°37' W 006°44'917.3
2017-Sep-12 17:30N 55°30' W 006°35'816.6
2017-Sep-12 17:00N 55°28' W 006°21'816.4
2017-Sep-12 16:30N 55°26' W 006°07'815.6
2017-Sep-12 16:00N 55°21' W 005°57'816.5
2017-Sep-12 15:31N 55°14' W 005°48'1115.9
2017-Sep-12 14:50N 55°05' W 005°37'615.4
2017-Sep-12 14:27N 55°01' W 005°31'715.1
2017-Sep-12 14:00N 54°55' W 005°25'714.6
2017-Sep-12 13:31N 54°48' W 005°21'714.3
2017-Sep-12 13:01N 54°42' W 005°16'714.5
2017-Sep-12 12:31N 54°35' W 005°11'715.0
2017-Sep-12 12:01N 54°28' W 005°09'815.2
2017-Sep-12 11:31N 54°20' W 005°09'815.5
2017-Sep-12 11:01N 54°12' W 005°09'1015.6
2017-Sep-12 10:22N 54°02' W 005°09'9413.7
2017-Sep-12 03:32N 52°29' W 005°28'114.8
2017-Sep-12 03:29N 52°28' W 005°28'714.1
2017-Sep-12 03:00N 52°22' W 005°31'714.6
2017-Sep-12 02:30N 52°15' W 005°34'815.1
2017-Sep-12 02:00N 52°08' W 005°38'3715.8
2017-Sep-11 23:38N 51°32' W 005°55'  
2017-Sep-09 10:07N 39°26' W 009°58'214.7
2017-Sep-09 10:00N 39°24' W 009°58'715.3
2017-Sep-09 09:30N 39°16' W 009°57'714.5
2017-Sep-09 09:00N 39°09' W 009°57'714.7
2017-Sep-09 08:30N 39°02' W 009°57'714.6
2017-Sep-09 08:01N 38°55' W 009°58'714.7
2017-Sep-09 07:30N 38°47' W 009°57'714.7
2017-Sep-09 07:00N 38°40' W 009°56'815.2
2017-Sep-09 06:31N 38°33' W 009°54'815.2
2017-Sep-09 06:01N 38°25' W 009°52'815.0
2017-Sep-09 05:30N 38°18' W 009°50'815.3
2017-Sep-09 05:00N 38°10' W 009°47'815.2
2017-Sep-09 04:30N 38°03' W 009°45'815.3
2017-Sep-09 04:00N 37°56' W 009°43'714.9
2017-Sep-09 03:30N 37°48' W 009°40'815.1
2017-Sep-09 03:00N 37°41' W 009°38'714.8
2017-Sep-09 02:30N 37°34' W 009°37'714.5
2017-Sep-09 02:00N 37°27' W 009°35'714.5
2017-Sep-09 01:30N 37°20' W 009°32'714.3
2017-Sep-09 01:00N 37°13' W 009°30'1114.2
2017-Sep-09 00:14N 37°02' W 009°27'313.7
2017-Sep-09 00:00N 36°59' W 009°26'713.6
2017-Sep-08 23:30N 36°52' W 009°25'713.6
2017-Sep-08 23:00N 36°47' W 009°19'713.9
2017-Sep-08 22:30N 36°42' W 009°13'713.5
2017-Sep-08 22:00N 36°38' W 009°06'714.2
2017-Sep-08 21:30N 36°36' W 008°58'714.9
2017-Sep-08 21:00N 36°35' W 008°49'714.8
2017-Sep-08 20:30N 36°34' W 008°39'714.8
2017-Sep-08 20:00N 36°32' W 008°30'714.9
2017-Sep-08 19:30N 36°30' W 008°22'815.1
2017-Sep-08 19:01N 36°28' W 008°13'815.1
2017-Sep-08 18:31N 36°26' W 008°04'815.3
2017-Sep-08 18:00N 36°25' W 007°54'815.8
2017-Sep-08 17:30N 36°23' W 007°45'815.8
2017-Sep-08 17:00N 36°19' W 007°36'815.7
2017-Sep-08 16:30N 36°17' W 007°27'815.7
2017-Sep-08 16:00N 36°14' W 007°17'815.9
2017-Sep-08 15:30N 36°11' W 007°08'815.8
2017-Sep-08 15:01N 36°09' W 006°59'  

Dump ship's entire track history